sensor_id;sensor_type;location;lat;lon;timestamp;P1;durP1;ratioP1;P2;durP2;ratioP2
23812;SDS011;12087;45.190;5.688;2023-10-19T00:04:57;15.13;;;6.90;;
23812;SDS011;12087;45.190;5.688;2023-10-19T00:10:19;13.23;;;7.15;;
23812;SDS011;12087;45.190;5.688;2023-10-19T00:15:42;14.63;;;8.90;;
23812;SDS011;12087;45.190;5.688;2023-10-19T00:21:11;17.52;;;8.93;;
23812;SDS011;12087;45.190;5.688;2023-10-19T00:26:39;13.45;;;8.55;;
23812;SDS011;12087;45.190;5.688;2023-10-19T00:32:02;13.07;;;9.15;;
23812;SDS011;12087;45.190;5.688;2023-10-19T00:37:27;19.48;;;9.88;;
23812;SDS011;12087;45.190;5.688;2023-10-19T00:42:52;14.60;;;7.93;;
23812;SDS011;12087;45.190;5.688;2023-10-19T00:48:15;13.20;;;8.35;;
23812;SDS011;12087;45.190;5.688;2023-10-19T00:53:39;15.25;;;9.05;;
23812;SDS011;12087;45.190;5.688;2023-10-19T00:59:02;10.35;;;7.68;;
23812;SDS011;12087;45.190;5.688;2023-10-19T01:04:32;11.77;;;7.50;;
23812;SDS011;12087;45.190;5.688;2023-10-19T01:09:57;9.60;;;6.72;;
23812;SDS011;12087;45.190;5.688;2023-10-19T01:15:21;11.60;;;6.97;;
23812;SDS011;12087;45.190;5.688;2023-10-19T01:20:49;11.60;;;7.28;;
23812;SDS011;12087;45.190;5.688;2023-10-19T01:26:13;13.07;;;7.70;;
23812;SDS011;12087;45.190;5.688;2023-10-19T01:31:42;13.77;;;7.13;;
23812;SDS011;12087;45.190;5.688;2023-10-19T01:37:16;13.32;;;6.53;;
23812;SDS011;12087;45.190;5.688;2023-10-19T01:42:39;13.73;;;6.80;;
23812;SDS011;12087;45.190;5.688;2023-10-19T01:48:02;12.45;;;8.30;;
23812;SDS011;12087;45.190;5.688;2023-10-19T01:53:26;13.00;;;9.32;;
23812;SDS011;12087;45.190;5.688;2023-10-19T01:58:51;14.63;;;8.00;;
23812;SDS011;12087;45.190;5.688;2023-10-19T02:04:14;13.05;;;7.57;;
23812;SDS011;12087;45.190;5.688;2023-10-19T02:09:36;11.88;;;8.98;;
23812;SDS011;12087;45.190;5.688;2023-10-19T02:15:01;11.18;;;7.50;;
23812;SDS011;12087;45.190;5.688;2023-10-19T02:20:24;17.45;;;8.93;;
23812;SDS011;12087;45.190;5.688;2023-10-19T02:25:46;16.33;;;8.07;;
23812;SDS011;12087;45.190;5.688;2023-10-19T02:31:11;10.57;;;7.38;;
23812;SDS011;12087;45.190;5.688;2023-10-19T02:36:38;11.93;;;6.20;;
23812;SDS011;12087;45.190;5.688;2023-10-19T02:42:01;9.70;;;6.20;;
23812;SDS011;12087;45.190;5.688;2023-10-19T02:47:25;14.55;;;7.28;;
23812;SDS011;12087;45.190;5.688;2023-10-19T02:52:49;13.50;;;8.23;;
23812;SDS011;12087;45.190;5.688;2023-10-19T02:58:11;12.18;;;8.85;;
23812;SDS011;12087;45.190;5.688;2023-10-19T03:03:35;13.93;;;8.02;;
23812;SDS011;12087;45.190;5.688;2023-10-19T03:08:59;15.98;;;9.05;;
23812;SDS011;12087;45.190;5.688;2023-10-19T03:14:25;9.40;;;6.75;;
23812;SDS011;12087;45.190;5.688;2023-10-19T03:19:49;11.07;;;7.38;;
23812;SDS011;12087;45.190;5.688;2023-10-19T03:25:11;13.43;;;7.85;;
23812;SDS011;12087;45.190;5.688;2023-10-19T03:30:51;18.58;;;7.18;;
23812;SDS011;12087;45.190;5.688;2023-10-19T03:36:16;13.70;;;7.80;;
23812;SDS011;12087;45.190;5.688;2023-10-19T03:41:39;11.73;;;7.65;;
23812;SDS011;12087;45.190;5.688;2023-10-19T03:47:02;13.35;;;7.85;;
23812;SDS011;12087;45.190;5.688;2023-10-19T03:52:28;13.63;;;6.70;;
23812;SDS011;12087;45.190;5.688;2023-10-19T03:58:01;14.15;;;7.13;;
23812;SDS011;12087;45.190;5.688;2023-10-19T04:03:30;13.70;;;6.00;;
23812;SDS011;12087;45.190;5.688;2023-10-19T04:09:01;13.38;;;5.90;;
23812;SDS011;12087;45.190;5.688;2023-10-19T04:14:33;9.05;;;5.78;;
23812;SDS011;12087;45.190;5.688;2023-10-19T04:20:05;10.98;;;6.05;;
23812;SDS011;12087;45.190;5.688;2023-10-19T04:25:47;6.35;;;5.50;;
23812;SDS011;12087;45.190;5.688;2023-10-19T04:31:13;9.55;;;6.28;;
23812;SDS011;12087;45.190;5.688;2023-10-19T04:36:36;9.25;;;6.45;;
23812;SDS011;12087;45.190;5.688;2023-10-19T04:42:01;14.43;;;6.10;;
23812;SDS011;12087;45.190;5.688;2023-10-19T04:47:24;11.85;;;6.13;;
23812;SDS011;12087;45.190;5.688;2023-10-19T04:52:46;7.97;;;5.63;;
23812;SDS011;12087;45.190;5.688;2023-10-19T04:58:17;11.00;;;5.85;;
23812;SDS011;12087;45.190;5.688;2023-10-19T05:03:52;10.57;;;7.00;;
23812;SDS011;12087;45.190;5.688;2023-10-19T05:09:31;13.75;;;9.20;;
23812;SDS011;12087;45.190;5.688;2023-10-19T05:15:01;11.80;;;8.48;;
23812;SDS011;12087;45.190;5.688;2023-10-19T05:20:29;12.07;;;7.55;;
23812;SDS011;12087;45.190;5.688;2023-10-19T05:25:52;14.52;;;9.02;;
23812;SDS011;12087;45.190;5.688;2023-10-19T05:31:16;13.48;;;8.55;;
23812;SDS011;12087;45.190;5.688;2023-10-19T05:36:39;13.30;;;7.72;;
23812;SDS011;12087;45.190;5.688;2023-10-19T05:42:04;16.50;;;9.10;;
23812;SDS011;12087;45.190;5.688;2023-10-19T05:47:27;15.00;;;9.60;;
23812;SDS011;12087;45.190;5.688;2023-10-19T05:52:50;13.27;;;8.95;;
23812;SDS011;12087;45.190;5.688;2023-10-19T05:58:13;18.27;;;9.55;;
23812;SDS011;12087;45.190;5.688;2023-10-19T06:03:36;25.05;;;9.20;;
23812;SDS011;12087;45.190;5.688;2023-10-19T06:08:59;9.55;;;6.53;;
23812;SDS011;12087;45.190;5.688;2023-10-19T06:14:22;13.75;;;7.45;;
23812;SDS011;12087;45.190;5.688;2023-10-19T06:19:46;12.75;;;8.30;;
23812;SDS011;12087;45.190;5.688;2023-10-19T06:25:08;14.20;;;7.55;;
23812;SDS011;12087;45.190;5.688;2023-10-19T06:30:31;10.15;;;6.90;;
23812;SDS011;12087;45.190;5.688;2023-10-19T06:35:55;15.52;;;7.35;;
23812;SDS011;12087;45.190;5.688;2023-10-19T06:41:17;11.65;;;6.25;;
23812;SDS011;12087;45.190;5.688;2023-10-19T06:46:39;12.93;;;6.65;;
23812;SDS011;12087;45.190;5.688;2023-10-19T06:52:04;14.30;;;6.80;;
23812;SDS011;12087;45.190;5.688;2023-10-19T06:57:27;15.20;;;7.85;;
23812;SDS011;12087;45.190;5.688;2023-10-19T07:02:49;10.27;;;6.00;;
23812;SDS011;12087;45.190;5.688;2023-10-19T07:08:14;13.25;;;6.05;;
23812;SDS011;12087;45.190;5.688;2023-10-19T07:13:36;12.80;;;6.25;;
23812;SDS011;12087;45.190;5.688;2023-10-19T07:19:00;12.77;;;6.38;;
23812;SDS011;12087;45.190;5.688;2023-10-19T07:24:23;11.75;;;5.93;;
23812;SDS011;12087;45.190;5.688;2023-10-19T07:29:45;10.55;;;5.82;;
23812;SDS011;12087;45.190;5.688;2023-10-19T07:35:08;12.40;;;5.50;;
23812;SDS011;12087;45.190;5.688;2023-10-19T07:40:32;13.23;;;5.82;;
23812;SDS011;12087;45.190;5.688;2023-10-19T07:45:55;13.05;;;6.22;;
23812;SDS011;12087;45.190;5.688;2023-10-19T07:51:17;10.18;;;5.68;;
23812;SDS011;12087;45.190;5.688;2023-10-19T07:56:41;7.90;;;4.85;;
23812;SDS011;12087;45.190;5.688;2023-10-19T08:02:06;13.32;;;5.82;;
23812;SDS011;12087;45.190;5.688;2023-10-19T08:07:31;13.13;;;4.90;;
23812;SDS011;12087;45.190;5.688;2023-10-19T08:12:59;13.60;;;5.97;;
23812;SDS011;12087;45.190;5.688;2023-10-19T08:18:24;6.95;;;4.05;;
23812;SDS011;12087;45.190;5.688;2023-10-19T08:23:47;15.25;;;4.63;;
23812;SDS011;12087;45.190;5.688;2023-10-19T08:29:11;7.75;;;5.20;;
23812;SDS011;12087;45.190;5.688;2023-10-19T08:34:34;11.15;;;4.53;;
23812;SDS011;12087;45.190;5.688;2023-10-19T08:39:57;12.63;;;5.68;;
23812;SDS011;12087;45.190;5.688;2023-10-19T08:45:20;10.15;;;4.05;;
23812;SDS011;12087;45.190;5.688;2023-10-19T08:50:44;8.23;;;4.20;;
23812;SDS011;12087;45.190;5.688;2023-10-19T08:56:09;11.60;;;4.97;;
23812;SDS011;12087;45.190;5.688;2023-10-19T09:01:36;8.00;;;4.50;;
23812;SDS011;12087;45.190;5.688;2023-10-19T09:07:00;11.95;;;4.88;;
23812;SDS011;12087;45.190;5.688;2023-10-19T09:12:30;9.32;;;4.18;;
23812;SDS011;12087;45.190;5.688;2023-10-19T09:17:56;10.98;;;4.90;;
23812;SDS011;12087;45.190;5.688;2023-10-19T09:23:19;10.80;;;4.50;;
23812;SDS011;12087;45.190;5.688;2023-10-19T09:28:42;12.63;;;5.28;;
23812;SDS011;12087;45.190;5.688;2023-10-19T09:34:09;12.25;;;4.18;;
23812;SDS011;12087;45.190;5.688;2023-10-19T09:39:32;13.93;;;5.45;;
23812;SDS011;12087;45.190;5.688;2023-10-19T09:44:58;13.15;;;4.95;;
23812;SDS011;12087;45.190;5.688;2023-10-19T09:55:50;9.32;;;5.20;;
23812;SDS011;12087;45.190;5.688;2023-10-19T10:01:16;9.63;;;5.00;;
23812;SDS011;12087;45.190;5.688;2023-10-19T10:12:25;7.50;;;4.43;;
23812;SDS011;12087;45.190;5.688;2023-10-19T10:17:49;12.95;;;5.55;;
23812;SDS011;12087;45.190;5.688;2023-10-19T10:23:20;11.45;;;4.78;;
23812;SDS011;12087;45.190;5.688;2023-10-19T10:28:48;10.02;;;4.20;;
23812;SDS011;12087;45.190;5.688;2023-10-19T10:34:44;12.30;;;4.70;;
23812;SDS011;12087;45.190;5.688;2023-10-19T10:40:10;10.60;;;4.97;;
23812;SDS011;12087;45.190;5.688;2023-10-19T10:45:35;10.15;;;4.47;;
23812;SDS011;12087;45.190;5.688;2023-10-19T10:50:57;9.63;;;3.95;;
23812;SDS011;12087;45.190;5.688;2023-10-19T10:56:22;7.40;;;3.97;;
23812;SDS011;12087;45.190;5.688;2023-10-19T11:01:45;7.78;;;3.88;;
23812;SDS011;12087;45.190;5.688;2023-10-19T11:07:07;15.13;;;4.65;;
23812;SDS011;12087;45.190;5.688;2023-10-19T11:12:41;9.10;;;3.42;;
23812;SDS011;12087;45.190;5.688;2023-10-19T11:18:04;10.10;;;2.88;;
23812;SDS011;12087;45.190;5.688;2023-10-19T11:23:40;7.25;;;1.70;;
23812;SDS011;12087;45.190;5.688;2023-10-19T11:29:04;1.42;;;0.90;;
23812;SDS011;12087;45.190;5.688;2023-10-19T11:34:30;2.08;;;0.65;;
23812;SDS011;12087;45.190;5.688;2023-10-19T11:39:54;4.82;;;0.80;;
23812;SDS011;12087;45.190;5.688;2023-10-19T11:45:18;12.50;;;1.48;;
23812;SDS011;12087;45.190;5.688;2023-10-19T11:50:41;3.47;;;0.80;;
23812;SDS011;12087;45.190;5.688;2023-10-19T11:56:03;5.22;;;0.73;;
23812;SDS011;12087;45.190;5.688;2023-10-19T12:01:28;4.18;;;1.35;;
23812;SDS011;12087;45.190;5.688;2023-10-19T12:06:50;0.80;;;0.63;;
23812;SDS011;12087;45.190;5.688;2023-10-19T12:12:13;2.03;;;0.77;;
23812;SDS011;12087;45.190;5.688;2023-10-19T12:17:37;2.42;;;0.70;;
23812;SDS011;12087;45.190;5.688;2023-10-19T12:22:59;1.10;;;0.60;;
23812;SDS011;12087;45.190;5.688;2023-10-19T12:28:21;2.78;;;0.93;;
23812;SDS011;12087;45.190;5.688;2023-10-19T12:33:46;1.15;;;0.60;;
23812;SDS011;12087;45.190;5.688;2023-10-19T12:39:08;1.10;;;0.30;;
23812;SDS011;12087;45.190;5.688;2023-10-19T12:44:36;2.40;;;0.85;;
23812;SDS011;12087;45.190;5.688;2023-10-19T12:50:03;1.88;;;0.80;;
23812;SDS011;12087;45.190;5.688;2023-10-19T12:55:27;1.33;;;0.77;;
23812;SDS011;12087;45.190;5.688;2023-10-19T13:00:51;0.82;;;0.45;;
23812;SDS011;12087;45.190;5.688;2023-10-19T13:06:16;1.40;;;0.70;;
23812;SDS011;12087;45.190;5.688;2023-10-19T13:11:39;1.33;;;0.82;;
23812;SDS011;12087;45.190;5.688;2023-10-19T13:17:03;0.40;;;0.30;;
23812;SDS011;12087;45.190;5.688;2023-10-19T13:22:27;0.88;;;0.40;;
23812;SDS011;12087;45.190;5.688;2023-10-19T13:27:49;1.38;;;0.47;;
23812;SDS011;12087;45.190;5.688;2023-10-19T13:33:11;0.55;;;0.40;;
23812;SDS011;12087;45.190;5.688;2023-10-19T13:38:35;1.80;;;0.40;;
23812;SDS011;12087;45.190;5.688;2023-10-19T13:43:58;0.30;;;0.22;;
23812;SDS011;12087;45.190;5.688;2023-10-19T13:49:20;0.73;;;0.43;;
23812;SDS011;12087;45.190;5.688;2023-10-19T13:54:44;5.72;;;0.82;;
23812;SDS011;12087;45.190;5.688;2023-10-19T14:00:08;3.08;;;0.47;;
23812;SDS011;12087;45.190;5.688;2023-10-19T14:05:35;1.48;;;0.57;;
23812;SDS011;12087;45.190;5.688;2023-10-19T14:11:02;0.80;;;0.60;;
23812;SDS011;12087;45.190;5.688;2023-10-19T14:16:24;1.15;;;0.50;;
23812;SDS011;12087;45.190;5.688;2023-10-19T14:21:46;0.77;;;0.60;;
23812;SDS011;12087;45.190;5.688;2023-10-19T14:27:10;1.48;;;0.40;;
23812;SDS011;12087;45.190;5.688;2023-10-19T14:32:33;1.77;;;0.82;;
23812;SDS011;12087;45.190;5.688;2023-10-19T14:37:56;3.60;;;0.60;;
23812;SDS011;12087;45.190;5.688;2023-10-19T14:43:20;1.95;;;1.00;;
23812;SDS011;12087;45.190;5.688;2023-10-19T14:48:43;2.35;;;0.77;;
23812;SDS011;12087;45.190;5.688;2023-10-19T14:54:06;2.25;;;0.65;;
23812;SDS011;12087;45.190;5.688;2023-10-19T14:59:31;2.53;;;0.60;;
23812;SDS011;12087;45.190;5.688;2023-10-19T15:04:56;1.42;;;0.50;;
23812;SDS011;12087;45.190;5.688;2023-10-19T15:10:20;1.65;;;0.60;;
23812;SDS011;12087;45.190;5.688;2023-10-19T15:15:45;1.55;;;0.50;;
23812;SDS011;12087;45.190;5.688;2023-10-19T15:21:09;2.33;;;0.70;;
23812;SDS011;12087;45.190;5.688;2023-10-19T15:26:31;2.50;;;0.70;;
23812;SDS011;12087;45.190;5.688;2023-10-19T15:31:55;1.70;;;0.60;;
23812;SDS011;12087;45.190;5.688;2023-10-19T15:37:17;4.35;;;0.40;;
23812;SDS011;12087;45.190;5.688;2023-10-19T15:42:40;3.65;;;1.10;;
23812;SDS011;12087;45.190;5.688;2023-10-19T15:48:04;1.85;;;0.65;;
23812;SDS011;12087;45.190;5.688;2023-10-19T15:53:32;1.67;;;0.75;;
23812;SDS011;12087;45.190;5.688;2023-10-19T15:58:54;1.10;;;0.50;;
23812;SDS011;12087;45.190;5.688;2023-10-19T16:04:18;2.38;;;0.80;;
23812;SDS011;12087;45.190;5.688;2023-10-19T16:09:40;1.70;;;0.70;;
23812;SDS011;12087;45.190;5.688;2023-10-19T16:15:03;2.05;;;0.50;;
23812;SDS011;12087;45.190;5.688;2023-10-19T16:20:28;0.85;;;0.30;;
23812;SDS011;12087;45.190;5.688;2023-10-19T16:25:57;1.23;;;0.60;;
23812;SDS011;12087;45.190;5.688;2023-10-19T16:31:20;0.93;;;0.40;;
23812;SDS011;12087;45.190;5.688;2023-10-19T16:36:43;3.10;;;0.55;;
23812;SDS011;12087;45.190;5.688;2023-10-19T16:42:06;0.60;;;0.40;;
23812;SDS011;12087;45.190;5.688;2023-10-19T16:47:28;1.20;;;0.50;;
23812;SDS011;12087;45.190;5.688;2023-10-19T16:52:52;3.30;;;0.50;;
23812;SDS011;12087;45.190;5.688;2023-10-19T16:58:14;1.83;;;0.52;;
23812;SDS011;12087;45.190;5.688;2023-10-19T17:03:37;1.88;;;0.63;;
23812;SDS011;12087;45.190;5.688;2023-10-19T17:09:08;0.63;;;0.40;;
23812;SDS011;12087;45.190;5.688;2023-10-19T17:14:34;1.33;;;0.45;;
23812;SDS011;12087;45.190;5.688;2023-10-19T17:19:57;1.27;;;0.70;;
23812;SDS011;12087;45.190;5.688;2023-10-19T17:25:22;1.50;;;1.00;;
23812;SDS011;12087;45.190;5.688;2023-10-19T17:30:44;1.90;;;0.57;;
23812;SDS011;12087;45.190;5.688;2023-10-19T17:36:06;2.10;;;0.55;;
23812;SDS011;12087;45.190;5.688;2023-10-19T17:41:30;1.85;;;0.70;;
23812;SDS011;12087;45.190;5.688;2023-10-19T17:46:53;2.05;;;0.80;;
23812;SDS011;12087;45.190;5.688;2023-10-19T17:52:15;1.45;;;0.70;;
23812;SDS011;12087;45.190;5.688;2023-10-19T17:57:39;3.25;;;0.82;;
23812;SDS011;12087;45.190;5.688;2023-10-19T18:03:01;2.00;;;0.50;;
23812;SDS011;12087;45.190;5.688;2023-10-19T18:08:24;1.38;;;0.70;;
23812;SDS011;12087;45.190;5.688;2023-10-19T18:13:47;1.02;;;0.38;;
23812;SDS011;12087;45.190;5.688;2023-10-19T18:19:10;2.03;;;1.00;;
23812;SDS011;12087;45.190;5.688;2023-10-19T18:24:33;4.25;;;1.02;;
23812;SDS011;12087;45.190;5.688;2023-10-19T18:29:56;1.70;;;0.63;;
23812;SDS011;12087;45.190;5.688;2023-10-19T18:35:19;1.67;;;0.50;;
23812;SDS011;12087;45.190;5.688;2023-10-19T18:40:41;1.35;;;0.60;;
23812;SDS011;12087;45.190;5.688;2023-10-19T18:46:05;1.20;;;0.60;;
23812;SDS011;12087;45.190;5.688;2023-10-19T18:51:27;1.55;;;0.85;;
23812;SDS011;12087;45.190;5.688;2023-10-19T18:56:53;2.60;;;1.00;;
23812;SDS011;12087;45.190;5.688;2023-10-19T19:02:32;6.18;;;3.45;;
23812;SDS011;12087;45.190;5.688;2023-10-19T19:08:00;1.75;;;0.60;;
23812;SDS011;12087;45.190;5.688;2023-10-19T19:13:24;2.50;;;0.73;;
23812;SDS011;12087;45.190;5.688;2023-10-19T19:18:50;2.17;;;0.70;;
23812;SDS011;12087;45.190;5.688;2023-10-19T19:24:12;1.33;;;0.47;;
23812;SDS011;12087;45.190;5.688;2023-10-19T19:29:35;0.90;;;0.50;;
23812;SDS011;12087;45.190;5.688;2023-10-19T19:35:00;2.28;;;0.70;;
23812;SDS011;12087;45.190;5.688;2023-10-19T19:40:24;1.48;;;0.43;;
23812;SDS011;12087;45.190;5.688;2023-10-19T19:45:46;2.78;;;0.70;;
23812;SDS011;12087;45.190;5.688;2023-10-19T19:51:09;0.95;;;0.70;;
23812;SDS011;12087;45.190;5.688;2023-10-19T19:56:32;3.50;;;0.65;;
23812;SDS011;12087;45.190;5.688;2023-10-19T20:01:54;1.65;;;0.50;;
23812;SDS011;12087;45.190;5.688;2023-10-19T20:07:18;3.05;;;0.82;;
23812;SDS011;12087;45.190;5.688;2023-10-19T20:12:42;1.67;;;0.50;;
23812;SDS011;12087;45.190;5.688;2023-10-19T20:18:08;2.78;;;0.50;;
23812;SDS011;12087;45.190;5.688;2023-10-19T20:23:34;1.02;;;0.40;;
23812;SDS011;12087;45.190;5.688;2023-10-19T20:28:58;0.73;;;0.30;;
23812;SDS011;12087;45.190;5.688;2023-10-19T20:34:21;1.45;;;0.30;;
23812;SDS011;12087;45.190;5.688;2023-10-19T20:39:47;1.35;;;0.32;;
23812;SDS011;12087;45.190;5.688;2023-10-19T20:45:16;1.27;;;0.60;;
23812;SDS011;12087;45.190;5.688;2023-10-19T20:50:44;3.28;;;0.60;;
23812;SDS011;12087;45.190;5.688;2023-10-19T20:56:15;2.37;;;0.80;;
23812;SDS011;12087;45.190;5.688;2023-10-19T21:01:37;3.03;;;0.55;;
23812;SDS011;12087;45.190;5.688;2023-10-19T21:07:01;2.55;;;0.50;;
23812;SDS011;12087;45.190;5.688;2023-10-19T21:12:30;0.77;;;0.38;;
23812;SDS011;12087;45.190;5.688;2023-10-19T21:17:57;1.63;;;0.40;;
23812;SDS011;12087;45.190;5.688;2023-10-19T21:23:23;0.30;;;0.22;;
23812;SDS011;12087;45.190;5.688;2023-10-19T21:28:48;4.00;;;0.77;;
23812;SDS011;12087;45.190;5.688;2023-10-19T21:34:11;0.52;;;0.40;;
23812;SDS011;12087;45.190;5.688;2023-10-19T21:39:33;1.27;;;0.28;;
23812;SDS011;12087;45.190;5.688;2023-10-19T21:44:56;1.85;;;0.30;;
23812;SDS011;12087;45.190;5.688;2023-10-19T21:50:19;0.75;;;0.20;;
23812;SDS011;12087;45.190;5.688;2023-10-19T21:55:41;1.33;;;0.25;;
23812;SDS011;12087;45.190;5.688;2023-10-19T22:01:05;1.05;;;0.30;;
23812;SDS011;12087;45.190;5.688;2023-10-19T22:06:29;2.08;;;0.20;;
23812;SDS011;12087;45.190;5.688;2023-10-19T22:11:51;1.25;;;0.68;;
23812;SDS011;12087;45.190;5.688;2023-10-19T22:17:16;1.20;;;0.30;;
23812;SDS011;12087;45.190;5.688;2023-10-19T22:22:39;0.88;;;0.20;;
23812;SDS011;12087;45.190;5.688;2023-10-19T22:28:02;0.93;;;0.20;;
23812;SDS011;12087;45.190;5.688;2023-10-19T22:33:28;0.55;;;0.08;;
23812;SDS011;12087;45.190;5.688;2023-10-19T22:38:50;0.30;;;0.30;;
23812;SDS011;12087;45.190;5.688;2023-10-19T22:44:14;0.45;;;0.20;;
23812;SDS011;12087;45.190;5.688;2023-10-19T22:49:38;0.57;;;0.10;;
23812;SDS011;12087;45.190;5.688;2023-10-19T22:55:01;0.77;;;0.28;;
23812;SDS011;12087;45.190;5.688;2023-10-19T23:00:24;0.60;;;0.25;;
23812;SDS011;12087;45.190;5.688;2023-10-19T23:05:49;0.35;;;0.10;;
23812;SDS011;12087;45.190;5.688;2023-10-19T23:11:14;1.50;;;0.30;;
23812;SDS011;12087;45.190;5.688;2023-10-19T23:16:39;1.02;;;0.20;;
23812;SDS011;12087;45.190;5.688;2023-10-19T23:22:09;2.42;;;0.28;;
23812;SDS011;12087;45.190;5.688;2023-10-19T23:27:34;1.80;;;0.30;;
23812;SDS011;12087;45.190;5.688;2023-10-19T23:32:58;0.40;;;0.10;;
23812;SDS011;12087;45.190;5.688;2023-10-19T23:38:21;0.85;;;0.20;;
23812;SDS011;12087;45.190;5.688;2023-10-19T23:43:44;0.55;;;0.22;;
23812;SDS011;12087;45.190;5.688;2023-10-19T23:49:07;0.28;;;0.10;;
23812;SDS011;12087;45.190;5.688;2023-10-19T23:54:31;0.80;;;0.20;;
23812;SDS011;12087;45.190;5.688;2023-10-19T23:59:54;0.98;;;0.32;;
